createdAt,value
2022-09-21T00:01:28.123Z,73.57
2022-09-21T00:04:02.295Z,74.28
2022-09-21T00:06:32.433Z,74.18
2022-09-21T00:08:59.230Z,74.77
2022-09-21T00:11:30.942Z,74.42
2022-09-21T00:14:10.707Z,74.75
2022-09-21T00:16:38.042Z,74.84
2022-09-21T00:19:06.833Z,75.10
2022-09-21T00:21:34.382Z,74.58
2022-09-21T00:24:04.468Z,74.61
2022-09-21T00:26:37.528Z,74.16
2022-09-21T00:29:05.048Z,74.07
2022-09-21T00:31:35.199Z,74.78
2022-09-21T00:34:03.611Z,74.67
2022-09-21T00:36:30.319Z,74.32
2022-09-21T00:39:03.954Z,74.10
2022-09-21T00:41:35.924Z,74.27
2022-09-21T00:44:24.074Z,74.64
2022-09-21T00:46:53.146Z,74.94
2022-09-21T00:49:21.891Z,75.19
2022-09-21T00:51:53.193Z,75.11
2022-09-21T00:54:51.152Z,75.04
2022-09-21T00:57:30.982Z,75.14
2022-09-21T01:00:01.370Z,75.00
2022-09-21T01:02:28.500Z,75.44
2022-09-21T01:04:58.483Z,75.87
2022-09-21T01:07:29.592Z,75.76
2022-09-21T01:10:00.377Z,76.11
2022-09-21T01:12:53.318Z,76.31
2022-09-21T01:15:35.546Z,75.80
2022-09-21T01:18:26.909Z,75.86
2022-09-21T01:20:58.639Z,75.50
2022-09-21T01:23:48.993Z,74.92
2022-09-21T01:26:29.218Z,74.94
2022-09-21T01:29:19.006Z,75.37
2022-09-21T01:32:05.462Z,75.52
2022-09-21T01:34:45.081Z,74.94
2022-09-21T01:37:21.765Z,75.54
2022-09-21T01:39:55.105Z,75.26
2022-09-21T01:42:27.714Z,75.15
2022-09-21T01:45:00.595Z,75.19
2022-09-21T01:47:31.597Z,75.16
2022-09-21T01:50:02.070Z,75.19
2022-09-21T01:52:41.942Z,75.72
2022-09-21T01:55:38.279Z,75.18
2022-09-21T01:58:17.584Z,75.52
2022-09-21T02:00:48.283Z,75.12
2022-09-21T02:03:36.514Z,75.64
2022-09-21T02:06:04.098Z,75.65
2022-09-21T02:08:35.292Z,75.42
2022-09-21T02:11:03.123Z,75.27
2022-09-21T02:13:37.707Z,75.84
2022-09-21T02:16:08.630Z,75.44
2022-09-21T02:18:43.637Z,75.78
2022-09-21T02:21:19.638Z,75.58
2022-09-21T02:24:06.956Z,75.89
2022-09-21T02:26:49.353Z,75.59
2022-09-21T02:29:47.266Z,75.57
2022-09-21T02:32:33.519Z,75.75
2022-09-21T02:35:08.073Z,75.64
2022-09-21T02:37:45.207Z,75.61
2022-09-21T02:40:35.163Z,75.53
2022-09-21T02:43:09.387Z,75.63
2022-09-21T02:45:45.241Z,76.24
2022-09-21T02:48:17.053Z,76.14
2022-09-21T02:50:54.378Z,75.99
2022-09-21T02:53:27.907Z,76.48
2022-09-21T02:55:58.150Z,76.37
2022-09-21T02:58:27.141Z,76.56
2022-09-21T03:00:56.690Z,76.50
2022-09-21T03:03:26.317Z,76.00
2022-09-21T03:05:55.534Z,76.62
2022-09-21T03:08:22.908Z,76.39
2022-09-21T03:10:50.856Z,76.66
2022-09-21T03:13:18.999Z,76.41
2022-09-21T03:15:46.563Z,76.15
2022-09-21T03:18:13.791Z,76.17
2022-09-21T03:20:48.442Z,76.71
2022-09-21T03:23:15.078Z,76.40
2022-09-21T03:25:45.682Z,76.44
2022-09-21T03:28:13.557Z,76.59
2022-09-21T03:30:40.647Z,76.61
2022-09-21T03:33:08.358Z,76.49
2022-09-21T03:35:35.019Z,76.31
2022-09-21T03:38:02.553Z,76.55
2022-09-21T03:40:29.331Z,76.43
2022-09-21T03:42:56.236Z,76.74
2022-09-21T03:45:23.193Z,76.74
2022-09-21T03:47:49.783Z,76.55
2022-09-21T03:50:16.711Z,76.58
2022-09-21T03:52:43.359Z,76.55
2022-09-21T03:55:10.038Z,76.70
2022-09-21T03:57:36.902Z,76.73
2022-09-21T04:00:06.665Z,76.41
2022-09-21T04:02:33.405Z,76.50
2022-09-21T04:05:00.138Z,76.68
2022-09-21T04:07:26.878Z,76.88
2022-09-21T04:09:54.085Z,76.48
2022-09-21T04:12:24.004Z,76.31
2022-09-21T04:14:50.589Z,76.60
2022-09-21T04:17:17.422Z,76.69
2022-09-21T04:19:47.906Z,76.55
2022-09-21T04:22:14.842Z,76.61
2022-09-21T04:24:41.511Z,76.62
2022-09-21T04:27:09.138Z,76.70
2022-09-21T04:29:36.357Z,76.77
2022-09-21T04:32:03.372Z,76.66
2022-09-21T04:34:31.210Z,77.03
2022-09-21T04:36:59.139Z,77.12
2022-09-21T04:39:26.431Z,77.14
2022-09-21T04:41:53.185Z,77.22
2022-09-21T04:44:19.861Z,76.87
2022-09-21T04:46:46.808Z,76.58
2022-09-21T04:49:13.502Z,76.56
2022-09-21T04:51:40.304Z,76.99
2022-09-21T04:54:06.934Z,77.00
2022-09-21T04:56:33.821Z,76.97
2022-09-21T04:59:00.685Z,77.01
2022-09-21T05:01:27.895Z,76.92
2022-09-21T05:03:57.758Z,77.12
2022-09-21T05:06:24.526Z,77.57
2022-09-21T05:09:09.502Z,76.91
2022-09-21T05:11:36.340Z,77.25
2022-09-21T05:14:03.345Z,77.30
2022-09-21T05:16:32.217Z,76.80
2022-09-21T05:18:58.904Z,76.80
2022-09-21T05:21:26.168Z,77.05
2022-09-21T05:23:52.797Z,76.91
2022-09-21T05:26:19.966Z,76.95
2022-09-21T05:28:46.953Z,77.26
2022-09-21T05:31:31.770Z,76.99
2022-09-21T05:34:17.042Z,76.78
2022-09-21T05:36:50.053Z,77.32
2022-09-21T05:39:17.058Z,77.39
2022-09-21T05:41:44.023Z,77.49
2022-09-21T05:44:14.464Z,77.54
2022-09-21T05:47:04.770Z,77.21
2022-09-21T05:49:49.884Z,77.43
2022-09-21T05:52:47.440Z,77.38
2022-09-21T05:55:52.053Z,77.35
2022-09-21T05:58:47.415Z,77.41
2022-09-21T06:01:28.321Z,77.77
2022-09-21T06:03:56.821Z,77.46
2022-09-21T06:06:23.589Z,77.89
2022-09-21T06:08:50.280Z,77.87
2022-09-21T06:11:17.238Z,77.87
2022-09-21T06:13:44.109Z,77.69
2022-09-21T06:16:11.493Z,77.96
2022-09-21T06:18:39.999Z,78.29
2022-09-21T06:21:12.789Z,78.31
2022-09-21T06:23:39.418Z,78.04
2022-09-21T06:26:09.153Z,77.65
2022-09-21T06:28:35.745Z,78.05
2022-09-21T06:31:05.213Z,77.87
2022-09-21T06:33:31.910Z,77.70
2022-09-21T06:36:01.074Z,78.01
2022-09-21T06:38:29.179Z,77.92
2022-09-21T06:41:00.849Z,77.85
2022-09-21T06:43:27.479Z,77.49
2022-09-21T06:46:04.169Z,77.43
2022-09-21T06:48:35.393Z,77.75
2022-09-21T06:51:04.115Z,77.58
2022-09-21T06:53:34.216Z,77.67
2022-09-21T06:56:05.971Z,77.59
2022-09-21T06:58:34.690Z,77.81
2022-09-21T07:01:14.512Z,77.63
2022-09-21T07:03:43.023Z,77.03
2022-09-21T07:06:18.124Z,77.32
2022-09-21T07:11:37.636Z,77.42
2022-09-21T07:14:07.486Z,77.44
2022-09-21T07:16:34.143Z,77.52
2022-09-21T07:19:10.739Z,77.43
2022-09-21T07:21:38.146Z,77.47
2022-09-21T07:24:11.208Z,77.89
2022-09-21T07:26:42.028Z,77.64
2022-09-21T07:29:08.755Z,77.73
2022-09-21T07:31:35.766Z,77.26
2022-09-21T07:34:02.542Z,77.23
2022-09-21T07:36:29.242Z,77.33
2022-09-21T07:38:58.094Z,77.05
2022-09-21T07:41:24.787Z,77.32
2022-09-21T07:43:52.228Z,76.85
2022-09-21T07:46:18.943Z,77.24
2022-09-21T07:48:50.955Z,77.09
2022-09-21T07:51:20.784Z,76.89
2022-09-21T07:53:56.689Z,78.02
2022-09-21T07:56:23.723Z,78.42
2022-09-21T07:59:08.667Z,79.03
2022-09-21T08:01:40.213Z,78.84
2022-09-21T08:04:11.206Z,78.24
2022-09-21T08:06:40.281Z,77.93
2022-09-21T08:09:08.577Z,77.13
2022-09-21T08:11:36.059Z,76.20
2022-09-21T08:14:06.207Z,75.69
2022-09-21T08:16:38.204Z,75.04
2022-09-21T08:19:05.478Z,74.44
2022-09-21T08:21:38.190Z,74.03
2022-09-21T08:24:05.157Z,73.58
2022-09-21T08:26:31.864Z,72.67
2022-09-21T08:29:01.331Z,72.21
2022-09-21T08:31:28.280Z,72.28
2022-09-21T08:33:59.553Z,71.79
2022-09-21T08:36:29.362Z,71.71
2022-09-21T08:38:57.009Z,71.50
2022-09-21T08:41:58.636Z,71.16
2022-09-21T08:44:51.293Z,70.58
2022-09-21T08:47:40.479Z,70.58
2022-09-21T08:50:38.080Z,71.05
2022-09-21T08:53:08.464Z,71.89
2022-09-21T08:55:35.282Z,73.08
2022-09-21T08:58:03.764Z,72.88
2022-09-21T09:00:38.246Z,72.67
2022-09-21T09:03:30.201Z,71.95
2022-09-21T09:06:26.671Z,71.85
2022-09-21T09:09:08.939Z,70.62
2022-09-21T09:11:54.452Z,68.09
2022-09-21T09:14:57.800Z,66.54
2022-09-21T09:17:49.324Z,65.75
2022-09-21T09:20:18.894Z,65.28
2022-09-21T09:23:00.571Z,64.46
2022-09-21T09:25:29.080Z,64.46
2022-09-21T09:28:05.250Z,64.57
2022-09-21T09:30:34.942Z,64.30
2022-09-21T09:33:19.977Z,63.77
2022-09-21T09:35:52.483Z,63.36
2022-09-21T09:38:32.096Z,63.17
2022-09-21T09:41:36.544Z,62.92
2022-09-21T09:44:31.568Z,62.96
2022-09-21T09:47:29.247Z,62.68
2022-09-21T09:50:08.022Z,62.67
2022-09-21T09:52:37.967Z,62.43
2022-09-21T09:55:27.380Z,62.44
2022-09-21T09:57:55.883Z,62.29
2022-09-21T10:00:23.062Z,62.39
2022-09-21T10:02:56.082Z,62.24
2022-09-21T10:05:45.388Z,61.85
2022-09-21T10:08:39.311Z,61.86
2022-09-21T10:11:09.170Z,61.64
2022-09-21T10:13:40.639Z,61.00
2022-09-21T10:16:15.403Z,60.80
2022-09-21T10:19:01.757Z,60.71
2022-09-21T10:21:35.638Z,60.70
2022-09-21T10:24:06.341Z,60.73
2022-09-21T10:26:42.158Z,60.49
2022-09-21T10:29:29.387Z,60.55
2022-09-21T10:32:03.474Z,60.16
2022-09-21T10:34:35.281Z,59.49
2022-09-21T10:37:23.027Z,59.01
2022-09-21T10:39:49.624Z,59.01
2022-09-21T10:42:18.974Z,58.94
2022-09-21T10:44:50.798Z,58.58
2022-09-21T10:47:41.018Z,58.39
2022-09-21T10:50:43.680Z,55.90
2022-09-21T10:53:10.213Z,55.73
2022-09-21T10:56:11.822Z,56.18
2022-09-21T10:58:39.847Z,56.73
2022-09-21T11:01:23.550Z,56.73
2022-09-21T11:04:03.134Z,56.02
2022-09-21T11:06:36.547Z,54.88
2022-09-21T11:09:12.526Z,55.30
2022-09-21T11:11:58.163Z,55.56
2022-09-21T11:14:27.602Z,55.69
2022-09-21T11:17:22.072Z,55.52
2022-09-21T11:20:03.171Z,55.66
2022-09-21T11:22:43.522Z,55.60
2022-09-21T11:25:32.418Z,55.60
2022-09-21T11:28:24.326Z,55.07
2022-09-21T11:31:14.713Z,54.78
2022-09-21T11:34:04.305Z,54.49
2022-09-21T11:36:36.716Z,54.02
2022-09-21T11:39:14.433Z,53.74
2022-09-21T11:41:53.781Z,53.74
2022-09-21T11:44:49.283Z,53.43
2022-09-21T11:47:24.783Z,53.09
2022-09-21T11:50:19.585Z,52.80
2022-09-21T11:52:52.899Z,53.04
2022-09-21T11:56:01.041Z,53.07
2022-09-21T11:58:40.861Z,52.36
2022-09-21T12:01:22.507Z,51.84
2022-09-21T12:03:57.808Z,52.34
2022-09-21T12:06:35.293Z,52.30
2022-09-21T12:09:34.641Z,52.29
2022-09-21T12:12:04.457Z,52.16
2022-09-21T12:14:46.366Z,52.04
2022-09-21T12:17:21.275Z,51.95
2022-09-21T12:20:18.041Z,52.20
2022-09-21T12:22:47.634Z,51.84
2022-09-21T12:25:40.904Z,51.81
2022-09-21T12:28:10.518Z,51.86
2022-09-21T12:30:42.537Z,51.52
2022-09-21T12:33:21.598Z,51.52
2022-09-21T12:35:55.084Z,51.36
2022-09-21T12:38:27.631Z,51.14
2022-09-21T12:41:18.842Z,51.22
2022-09-21T12:44:00.354Z,51.53
2022-09-21T12:46:52.917Z,51.37
2022-09-21T12:49:31.622Z,51.25
2022-09-21T12:52:06.858Z,51.43
2022-09-21T12:54:48.004Z,50.94
2022-09-21T12:57:53.669Z,51.02
2022-09-21T13:00:23.006Z,51.04
2022-09-21T13:03:10.434Z,50.84
2022-09-21T13:05:49.488Z,51.05
2022-09-21T13:08:19.199Z,51.16
2022-09-21T13:10:55.325Z,51.60
2022-09-21T13:13:30.420Z,50.73
2022-09-21T13:15:59.450Z,50.96
2022-09-21T13:18:38.003Z,50.99
2022-09-21T13:21:24.250Z,51.63
2022-09-21T13:24:03.181Z,52.18
2022-09-21T13:26:41.747Z,52.20
2022-09-21T13:29:32.134Z,52.06
2022-09-21T13:32:09.583Z,51.99
2022-09-21T13:34:39.143Z,52.18
2022-09-21T13:37:11.779Z,52.05
2022-09-21T13:39:50.441Z,51.64
2022-09-21T13:42:32.309Z,51.59
2022-09-21T13:45:05.131Z,51.45
2022-09-21T13:47:38.520Z,51.42
2022-09-21T13:50:38.399Z,51.54
2022-09-21T13:53:20.391Z,51.57
2022-09-21T13:56:00.946Z,51.37
2022-09-21T13:58:37.550Z,51.33
2022-09-21T14:01:35.582Z,51.64
2022-09-21T14:04:21.594Z,51.62
2022-09-21T14:06:52.186Z,51.88
2022-09-21T14:10:11.513Z,51.74
2022-09-21T14:12:45.485Z,51.61
2022-09-21T14:15:19.502Z,51.33
2022-09-21T14:18:12.227Z,51.46
2022-09-21T14:20:39.805Z,51.38
2022-09-21T14:23:16.287Z,51.25
2022-09-21T14:25:54.482Z,51.32
2022-09-21T14:28:27.595Z,50.98
2022-09-21T14:31:01.783Z,50.91
2022-09-21T14:33:35.500Z,51.09
2022-09-21T14:36:08.764Z,51.09
2022-09-21T14:38:45.424Z,50.97
2022-09-21T14:41:20.631Z,51.42
2022-09-21T14:43:52.339Z,51.36
2022-09-21T14:47:04.235Z,51.05
2022-09-21T14:49:52.592Z,51.13
2022-09-21T14:52:47.854Z,51.23
2022-09-21T14:55:25.973Z,50.32
2022-09-21T14:58:04.735Z,50.58
2022-09-21T15:00:43.645Z,50.50
2022-09-21T15:03:39.205Z,50.02
2022-09-21T15:07:00.882Z,50.19
2022-09-21T15:10:18.051Z,49.72
2022-09-21T15:12:54.332Z,49.97
2022-09-21T15:15:47.114Z,50.42
2022-09-21T15:18:22.041Z,50.64
2022-09-21T15:21:04.093Z,50.65
2022-09-21T15:23:41.239Z,50.76
2022-09-21T15:26:10.590Z,51.05
2022-09-21T15:29:07.910Z,51.17
2022-09-21T15:31:41.447Z,51.29
2022-09-21T15:34:10.983Z,51.67
2022-09-21T15:36:40.475Z,51.95
2022-09-21T15:39:20.875Z,51.88
2022-09-21T15:41:49.441Z,51.78
2022-09-21T15:44:23.985Z,51.72
2022-09-21T15:47:00.255Z,51.64
2022-09-21T15:49:29.802Z,51.62
2022-09-21T15:52:06.487Z,51.85
2022-09-21T15:54:37.089Z,51.82
2022-09-21T15:57:09.383Z,52.15
2022-09-21T15:59:36.078Z,52.15
2022-09-21T16:02:15.772Z,52.07
2022-09-21T16:04:52.772Z,52.33
2022-09-21T16:07:43.110Z,52.39
2022-09-21T16:10:48.999Z,52.67
2022-09-21T16:13:43.135Z,52.71
2022-09-21T16:16:15.008Z,53.03
2022-09-21T16:18:50.997Z,53.07
2022-09-21T16:21:20.838Z,53.14
2022-09-21T16:23:54.818Z,53.29
2022-09-21T16:26:35.254Z,53.40
2022-09-21T16:29:26.515Z,53.63
2022-09-21T16:32:18.965Z,53.55
2022-09-21T16:34:48.343Z,53.47
2022-09-21T16:37:28.117Z,53.89
2022-09-21T16:39:56.963Z,54.14
2022-09-21T16:42:27.901Z,54.30
2022-09-21T16:44:55.123Z,54.40
2022-09-21T16:47:26.819Z,55.02
2022-09-21T16:50:01.461Z,55.23
2022-09-21T16:52:29.490Z,55.13
2022-09-21T16:54:58.915Z,55.89
2022-09-21T16:57:26.603Z,56.03
2022-09-21T16:59:53.234Z,56.09
2022-09-21T17:02:20.016Z,56.68
2022-09-21T17:04:48.039Z,56.77
2022-09-21T17:07:15.612Z,57.10
2022-09-21T17:09:46.474Z,57.75
2022-09-21T17:12:17.877Z,57.59
2022-09-21T17:14:47.028Z,57.83
2022-09-21T17:17:17.214Z,58.36
2022-09-21T17:19:46.507Z,58.58
2022-09-21T17:22:17.297Z,58.98
2022-09-21T17:24:51.757Z,58.82
2022-09-21T17:27:26.830Z,59.34
2022-09-21T17:29:55.345Z,59.50
2022-09-21T17:32:24.692Z,60.07
2022-09-21T17:35:17.452Z,60.31
2022-09-21T17:37:47.082Z,60.23
2022-09-21T17:40:14.488Z,60.52
2022-09-21T17:42:46.574Z,60.82
2022-09-21T17:45:37.650Z,61.11
2022-09-21T17:48:05.245Z,61.03
2022-09-21T17:50:32.322Z,61.43
2022-09-21T17:53:17.989Z,61.48
2022-09-21T17:55:54.518Z,61.64
2022-09-21T17:58:59.843Z,61.78
2022-09-21T18:01:34.167Z,62.03
2022-09-21T18:04:01.197Z,62.33
2022-09-21T18:06:28.804Z,62.63
2022-09-21T18:08:55.971Z,62.96
2022-09-21T18:12:01.898Z,62.94
2022-09-21T18:14:31.690Z,63.01
2022-09-21T18:17:00.982Z,63.35
2022-09-21T18:19:27.626Z,63.53
2022-09-21T18:22:02.570Z,63.85
2022-09-21T18:24:33.697Z,63.84
2022-09-21T18:27:00.885Z,64.30
2022-09-21T18:29:40.880Z,64.51
2022-09-21T18:32:47.258Z,64.54
2022-09-21T18:35:51.118Z,64.62
2022-09-21T18:38:36.306Z,64.73
2022-09-21T18:41:39.278Z,64.87
2022-09-21T18:44:25.403Z,64.73
2022-09-21T18:47:00.818Z,64.71
2022-09-21T18:49:58.000Z,65.27
2022-09-21T18:52:40.737Z,65.48
2022-09-21T18:55:17.973Z,65.50
2022-09-21T18:57:45.455Z,65.39
2022-09-21T19:00:15.674Z,65.87
2022-09-21T19:02:59.056Z,66.11
2022-09-21T19:05:29.480Z,66.11
2022-09-21T19:08:11.353Z,66.29
2022-09-21T19:11:21.990Z,66.12
2022-09-21T19:14:04.993Z,66.66
2022-09-21T19:16:51.819Z,66.78
2022-09-21T19:19:37.030Z,66.62
2022-09-21T19:22:28.115Z,66.84
2022-09-21T19:25:19.227Z,66.96
2022-09-21T19:28:11.986Z,67.15
2022-09-21T19:30:39.748Z,67.15
2022-09-21T19:33:48.248Z,67.55
2022-09-21T19:36:09.621Z,67.83
2022-09-21T19:38:36.358Z,67.82
2022-09-21T19:41:05.414Z,67.87
2022-09-21T19:43:48.805Z,67.86
2022-09-21T19:46:41.779Z,68.16
2022-09-21T19:49:18.089Z,67.81
2022-09-21T19:51:49.685Z,68.12
2022-09-21T19:54:37.613Z,68.17
2022-09-21T19:57:41.478Z,68.61
2022-09-21T20:00:11.417Z,67.82
2022-09-21T20:03:14.157Z,69.01
2022-09-21T20:05:57.240Z,68.10
2022-09-21T20:08:33.763Z,68.51
2022-09-21T20:11:15.594Z,68.09
2022-09-21T20:13:47.715Z,68.64
2022-09-21T20:16:42.964Z,68.50
2022-09-21T20:19:57.786Z,69.26
2022-09-21T20:22:34.833Z,69.35
2022-09-21T20:25:25.415Z,69.01
2022-09-21T20:27:55.933Z,69.52
2022-09-21T20:30:28.499Z,69.17
2022-09-21T20:33:06.896Z,69.88
2022-09-21T20:35:34.617Z,69.60
2022-09-21T20:38:02.882Z,69.53
2022-09-21T20:40:32.426Z,69.05
2022-09-21T20:43:01.220Z,69.49
2022-09-21T20:45:28.508Z,69.22
2022-09-21T20:47:57.298Z,69.82
2022-09-21T20:50:33.364Z,69.54
2022-09-21T20:53:00.250Z,69.72
2022-09-21T20:55:28.253Z,69.29
2022-09-21T20:57:55.140Z,69.57
2022-09-21T21:00:21.801Z,69.97
2022-09-21T21:02:48.432Z,69.87
2022-09-21T21:05:15.121Z,69.68
2022-09-21T21:07:44.598Z,69.80
2022-09-21T21:10:16.549Z,70.36
2022-09-21T21:12:43.131Z,70.73
2022-09-21T21:15:11.527Z,70.81
2022-09-21T21:17:39.131Z,70.57
2022-09-21T21:20:07.183Z,70.43
2022-09-21T21:22:33.845Z,70.37
2022-09-21T21:25:00.794Z,70.84
2022-09-21T21:27:28.093Z,70.97
2022-09-21T21:29:55.405Z,70.86
2022-09-21T21:32:25.250Z,70.61
2022-09-21T21:34:53.122Z,70.13
2022-09-21T21:37:21.089Z,70.68
2022-09-21T21:39:48.021Z,70.66
2022-09-21T21:42:14.753Z,70.37
2022-09-21T21:44:41.770Z,70.93
2022-09-21T21:47:27.886Z,70.32
2022-09-21T21:49:55.159Z,70.18
2022-09-21T21:52:21.948Z,70.70
2022-09-21T21:54:48.543Z,70.61
2022-09-21T21:57:15.182Z,70.72
2022-09-21T21:59:43.297Z,70.40
2022-09-21T22:02:13.060Z,70.52
2022-09-21T22:04:50.070Z,71.02
2022-09-21T22:07:16.978Z,70.94
2022-09-21T22:09:46.695Z,71.00
2022-09-21T22:12:15.795Z,71.16
2022-09-21T22:14:49.009Z,70.96
2022-09-21T22:17:15.953Z,70.85
2022-09-21T22:19:45.679Z,70.90
2022-09-21T22:22:12.361Z,71.12
2022-09-21T22:24:39.269Z,70.93
2022-09-21T22:27:05.925Z,71.01
2022-09-21T22:29:32.740Z,70.94
2022-09-21T22:31:59.966Z,71.09
2022-09-21T22:34:26.702Z,71.15
2022-09-21T22:36:53.917Z,71.41
2022-09-21T22:39:20.576Z,71.16
2022-09-21T22:41:47.181Z,71.00
2022-09-21T22:44:13.801Z,71.49
2022-09-21T22:46:40.701Z,71.62
2022-09-21T22:49:07.834Z,71.40
2022-09-21T22:51:35.116Z,71.44
2022-09-21T22:54:01.819Z,71.73
2022-09-21T22:56:32.781Z,71.68
2022-09-21T22:59:04.171Z,71.92
2022-09-21T23:01:37.468Z,72.03
2022-09-21T23:04:24.431Z,71.74
2022-09-21T23:07:05.238Z,71.79
2022-09-21T23:09:32.009Z,71.64
2022-09-21T23:12:01.599Z,71.46
2022-09-21T23:14:29.542Z,71.59
2022-09-21T23:16:56.226Z,71.91
2022-09-21T23:19:22.810Z,71.90
2022-09-21T23:21:53.111Z,71.89
2022-09-21T23:24:20.313Z,72.04
2022-09-21T23:26:47.610Z,71.50
2022-09-21T23:29:19.570Z,71.91
2022-09-21T23:31:46.597Z,71.59
2022-09-21T23:34:16.946Z,71.76
2022-09-21T23:36:50.739Z,71.96
2022-09-21T23:39:18.656Z,72.16
2022-09-21T23:41:45.378Z,71.77
2022-09-21T23:44:12.215Z,72.05
2022-09-21T23:46:40.218Z,72.11
2022-09-21T23:49:07.339Z,71.82
2022-09-21T23:51:34.555Z,71.98
2022-09-21T23:54:01.485Z,72.16
2022-09-21T23:56:28.930Z,71.77
2022-09-21T23:58:56.369Z,72.04
